• Join FlightAware (Why Join?)
  • Login
  • US Flag 
07:49PM EDT


 

Airport Tracker/Info


-or-


 

Live Flight TrackerFlight Track Log ✈ FLG3432 ✈ 12-Jan-2014 ✈ KDFW - KMSP

Flight Track Log - Related Links

Times and Time Zones

All times are in EST time to prevent confusion due to time zone crossing. See the FLG3432 flight status page for this flight to view local times or setup timezone preferences in your user account.

Time Position Orientation Groundspeed Altitude Reporting Facility
EST Latitude Longitude Course Direction KTS MPH feet Rate Location/Type
09:19AM 32.8833 -97.0333 164° South 174 200 1,200  Level Dallas / Fort Worth TRACON
09:20AM 32.8333 -97.0167 164° South 176 203 3,300 1,800 Climbing Dallas / Fort Worth TRACON
09:21AM 32.7833 -96.9833 151° Southeast 255 293 4,800 2,100 Climbing Dallas / Fort Worth TRACON
09:22AM 32.8000 -96.9167 73° East 304 350 7,600 2,160 Climbing Dallas / Fort Worth TRACON
09:24AM 32.9247 -96.9322 354° North 301 346 10,500 1,860 Climbing Fort Worth Center
09:25AM 33.0208 -96.9639 345° North 337 388 12,600 1,860 Climbing Fort Worth Center
09:26AM 33.1206 -96.9631 360° North 377 434 14,400 1,680 Climbing Fort Worth Center
09:27AM 33.2289 -96.9381 11° North 394 453 16,100 1,320 Climbing Fort Worth Center
09:28AM 33.3458 -96.9056 13° North 420 483 17,200 1,320 Climbing Fort Worth Center
09:29AM 33.4672 -96.8764 11° North 441 507 18,900 1,680 Climbing Fort Worth Center
09:30AM 33.5964 -96.8425 12° North 440 506 20,700 1,620 Climbing Fort Worth Center
09:31AM 33.7183 -96.8133 11° North 446 513 22,200 1,380 Climbing Fort Worth Center
09:32AM 33.8417 -96.7825 12° North 449 517 23,600 1,260 Climbing Fort Worth Center
09:33AM 33.9661 -96.7514 12° North 455 524 24,900 1,320 Climbing Fort Worth Center
09:34AM 34.0989 -96.7161 12° North 456 525 26,400 1,380 Climbing Fort Worth Center
09:35AM 34.2244 -96.6850 12° North 459 528 27,800 1,200 Climbing Fort Worth Center
09:36AM 34.3478 -96.6533 12° North 455 524 28,900 960 Climbing Fort Worth Center
09:37AM 34.4753 -96.6200 12° North 466 536 29,800 780 Climbing Fort Worth Center
09:38AM 34.6033 -96.5872 12° North 471 542 30,600 840 Climbing Fort Worth Center
09:39AM 34.7317 -96.5531 12° North 476 548 31,600 1,020 Climbing Fort Worth Center
09:40AM 34.8583 -96.5203 12° North 468 539 32,700 840 Climbing Fort Worth Center
09:41AM 34.9856 -96.4900 11° North 468 539 33,400 540 Climbing Fort Worth Center
09:42AM 35.1403 -96.4492 12° North 476 548 33,900 600 Climbing Fort Worth Center
09:43AM 35.2694 -96.4158 12° North 477 549 34,700 480 Climbing Fort Worth Center
09:44AM 35.3986 -96.3833 12° North 476 548 35,000 120 Climbing Fort Worth Center
09:45AM 35.4961 -96.3553 13° North 471 542 35,000  Level Kansas City Center
09:46AM 35.6222 -96.3219 12° North 467 537 35,000  Level Kansas City Center
09:47AM 35.7472 -96.2894 12° North 465 535 35,000  Level Kansas City Center
09:48AM 35.8744 -96.2564 12° North 462 532 35,000  Level Kansas City Center
09:49AM 36.0022 -96.2228 12° North 465 535 35,000  Level Kansas City Center
09:50AM 36.1319 -96.1892 12° North 470 541 35,000  Level Kansas City Center
09:51AM 36.2628 -96.1547 12° North 474 545 35,000  Level Kansas City Center
09:52AM 36.3942 -96.1194 12° North 477 549 35,000  Level Kansas City Center
09:53AM 36.5258 -96.0839 12° North 478 550 35,000  Level Kansas City Center
09:54AM 36.6575 -96.0489 12° North 478 550 35,000  Level Kansas City Center
09:55AM 36.7878 -96.0131 12° North 475 547 35,000  Level Kansas City Center
09:56AM 36.9183 -95.9775 12° North 477 549 35,000  Level Kansas City Center
09:57AM 37.0486 -95.9417 12° North 475 547 35,000  Level Kansas City Center
09:59AM 37.3353 -95.8611 13° North 478 550 35,000  Level Kansas City Center
10:00AM 37.4642 -95.8261 12° North 473 544 35,000  Level Kansas City Center
10:01AM 37.5944 -95.7911 12° North 475 547 35,000  Level Kansas City Center
10:02AM 37.7217 -95.7572 12° North 468 539 35,000  Level Kansas City Center
10:03AM 37.8517 -95.7189 13° North 474 545 35,000  Level Kansas City Center
10:04AM 37.9911 -95.6814 12° North 473 544 35,000  Level Kansas City Center
10:05AM 38.1153 -95.6461 13° North 477 549 35,000  Level Kansas City Center
10:06AM 38.2386 -95.6117 12° North 474 545 35,000  Level Kansas City Center
10:07AM 38.3839 -95.5708 12° North 478 550 35,000  Level Kansas City Center
10:08AM 38.5069 -95.5358 13° North 473 544 35,000  Level Kansas City Center
10:09AM 38.6536 -95.4939 13° North 482 555 35,000  Level Kansas City Center
10:10AM 38.7783 -95.4597 12° North 479 551 35,000  Level Kansas City Center
10:11AM 38.9031 -95.4231 13° North 479 551 35,000  Level Kansas City Center
10:12AM 39.0464 -95.3803 13° North 483 556 35,000  Level Kansas City Center
10:13AM 39.1839 -95.3411 12° North 484 557 35,000  Level Kansas City Center
10:14AM 39.3203 -95.3006 13° North 483 556 35,000  Level Kansas City Center
10:15AM 39.4583 -95.2614 12° North 485 558 35,000  Level Kansas City Center
10:17AM 39.5831 -95.2250 13° North 481 554 35,000  Level Kansas City Center
10:18AM 39.7094 -95.1881 13° North 484 557 35,000  Level Kansas City Center
10:19AM 39.8558 -95.1450 13° North 482 555 35,000  Level Kansas City Center
10:20AM 39.9819 -95.1069 13° North 484 557 35,000  Level Kansas City Center
10:21AM 40.1075 -95.0708 12° North 484 557 35,000  Level Kansas City Center
10:22AM 40.2542 -95.0256 13° North 484 557 35,000  Level Kansas City Center
10:23AM 40.3797 -94.9925 11° North 482 555 35,000  Level Kansas City Center
10:24AM 40.5264 -94.9497 12° North 482 555 35,000  Level Kansas City Center
10:25AM 40.6528 -94.9111 13° North 485 558 35,000  Level Kansas City Center
10:26AM 40.8158 -94.8564 14° North 485 558 35,000  Level Minneapolis Center
10:27AM 40.9478 -94.8167 13° North 487 560 35,000  Level Minneapolis Center
10:28AM 41.1061 -94.7683 13° North 488 562 35,000  Level Minneapolis Center
10:29AM 41.2375 -94.7275 13° North 488 562 35,000  Level Minneapolis Center
10:30AM 41.3700 -94.6872 13° North 489 563 35,000  Level Minneapolis Center
10:31AM 41.5031 -94.6453 13° North 491 565 35,000  Level Minneapolis Center
10:32AM 41.6369 -94.6042 13° North 494 568 35,000  Level Minneapolis Center
10:33AM 41.7706 -94.5622 13° North 496 571 35,000  Level Minneapolis Center
10:34AM 41.9064 -94.5203 13° North 499 574 35,000 -420 Level Minneapolis Center
10:35AM 42.0403 -94.4781 13° North 498 573 34,200 -960 Descending Minneapolis Center
10:36AM 42.1767 -94.4333 14° North 502 578 33,100 -600 Descending Minneapolis Center
10:37AM 42.3139 -94.3914 13° North 504 580 33,000 -60 Descending Minneapolis Center
10:38AM 42.4700 -94.3392 14° North 503 579 33,000  Level Minneapolis Center
10:39AM 42.6067 -94.2794 18° North 520 598 33,000  Level Minneapolis Center
10:40AM 42.7311 -94.1608 35° Northeast 547 629 33,000  Level Minneapolis Center
10:41AM 42.8517 -94.0294 39° Northeast 556 640 33,000  Level Minneapolis Center
10:42AM 42.9703 -93.8989 39° Northeast 553 636 33,000  Level Minneapolis Center
10:43AM 43.0900 -93.7683 39° Northeast 552 635 33,000 -360 Level Minneapolis Center
10:44AM 43.2072 -93.6392 39° Northeast 546 628 32,300 -1,500 Descending Minneapolis Center
10:45AM 43.3353 -93.5569 25° Northeast 519 597 30,000 -2,940 Descending Minneapolis Center
10:46AM 43.4892 -93.5342 North 470 541 26,400 -3,000 Descending Minneapolis Center
10:47AM 43.5958 -93.5242 North 442 509 24,000 -2,400 Descending Minneapolis Center
10:48AM 43.7108 -93.5139 North 422 486 21,600 -2,580 Descending Minneapolis Center
10:49AM 43.8364 -93.5011 North 383 441 18,800 -2,640 Descending Minneapolis Center
10:50AM 43.9383 -93.4925 North 369 425 16,200 -2,280 Descending Minneapolis Center
10:51AM 44.0431 -93.4817 North 376 433 14,200 -1,920 Descending Minneapolis Center
10:53AM 44.1442 -93.4722 North 365 420 12,300 -1,620 Descending Minneapolis Center
10:54AM 44.2389 -93.4572 North 346 398 11,000 -660 Descending Minneapolis Center
10:55AM 44.3275 -93.3958 26° Northeast 354 407 11,000  Level Minneapolis Center
10:56AM 44.4133 -93.3358 27° Northeast 348 400 11,000  Level Minneapolis Center
10:57AM 44.5003 -93.2747 27° Northeast 351 404 11,000  Level Minneapolis Center
10:58AM 44.5769 -93.2203 27° Northeast 315 362 11,000 -120 Level Minneapolis Center
10:59AM 44.6650 -93.2039 North 258 297 10,800 -720 Descending Minneapolis Center
11:00AM 44.7242 -93.2406 336° Northwest 232 267 9,500 -1,260 Descending Minneapolis Center
11:01AM 44.7831 -93.2778 336° Northwest 220 253 8,200 -1,380 Descending Minneapolis Center
11:02AM 44.8244 -93.3297 318° Northwest 211 243 6,700 -1,080 Descending Minneapolis Center
11:03AM 44.8442 -93.4008 291° West 197 227 6,000 -720 Descending Minneapolis Center
11:04AM 44.8617 -93.4653 291° West 181 208 5,300 -540 Descending Minneapolis Center
11:05AM 44.9047 -93.4764 350° North 210 242 5,000 -780 Descending Minneapolis Center
11:06AM 44.9392 -93.4125 53° Northeast 220 253 3,800 -1,140 Descending Minneapolis Center
11:07AM 44.9342 -93.3417 96° East 182 209 2,700 -1,020 Descending Minneapolis Center
11:08AM 44.9108 -93.2883 122° Southeast 160 184 1,800 -900 Descending Minneapolis Center
11:10AM 44.8820 -93.2218 55° Northeast  Level Estimated
11:17AM 44.8820 -93.2218 55° Northeast  Level Estimated